createdAt,value
2023-04-18T00:00:46.917Z,32.58
2023-04-18T00:03:53.951Z,45.08
2023-04-18T00:06:57.396Z,41.05
2023-04-18T00:10:00.858Z,34.88
2023-04-18T00:13:29.264Z,49.20
2023-04-18T00:16:34.329Z,38.20
2023-04-18T00:19:44.021Z,45.85
2023-04-18T00:22:47.455Z,25.38
2023-04-18T00:25:57.119Z,42.83
2023-04-18T00:29:00.612Z,39.78
2023-04-18T00:32:10.403Z,39.65
2023-04-18T00:35:16.291Z,51.65
2023-04-18T00:38:22.687Z,43.92
2023-04-18T00:41:28.390Z,44.40
2023-04-18T00:44:33.025Z,55.55
2023-04-18T00:47:36.969Z,47.03
2023-04-18T00:50:41.442Z,50.00
2023-04-18T00:53:46.762Z,32.33
2023-04-18T00:56:50.155Z,43.13
2023-04-18T00:59:53.775Z,36.42
2023-04-18T01:03:00.241Z,30.15
2023-04-18T01:06:04.022Z,24.67
2023-04-18T01:09:12.762Z,28.73
2023-04-18T01:12:16.606Z,29.50
2023-04-18T01:15:20.091Z,43.35
2023-04-18T01:18:23.693Z,28.27
2023-04-18T01:21:34.597Z,53.08
2023-04-18T01:24:39.810Z,41.78
2023-04-18T01:27:52.402Z,46.08
2023-04-18T01:31:21.292Z,22.08
2023-04-18T01:34:24.853Z,26.70
2023-04-18T01:37:28.387Z,23.88
2023-04-18T01:40:32.802Z,28.88
2023-04-18T01:43:36.336Z,26.75
2023-04-18T01:46:41.611Z,29.55
2023-04-18T01:49:49.764Z,24.15
2023-04-18T01:53:18.668Z,23.05
2023-04-18T01:56:22.276Z,19.65
2023-04-18T01:59:25.749Z,22.60
2023-04-18T02:02:29.246Z,20.75
2023-04-18T02:05:32.766Z,28.88
2023-04-18T02:08:36.457Z,25.30
2023-04-18T02:11:42.629Z,28.45
2023-04-18T02:14:46.271Z,19.10
2023-04-18T02:17:51.208Z,20.73
2023-04-18T02:20:54.830Z,17.02
2023-04-18T02:24:24.112Z,19.90
2023-04-18T02:27:35.772Z,15.90
2023-04-18T02:30:42.136Z,12.07
2023-04-18T02:33:48.343Z,11.55
2023-04-18T02:36:51.700Z,9.13
2023-04-18T02:39:55.444Z,9.18
2023-04-18T02:43:09.606Z,9.40
2023-04-18T02:46:13.416Z,13.30
2023-04-18T02:52:34.221Z,5.50
2023-04-18T02:55:38.352Z,10.18
2023-04-18T02:58:41.776Z,8.30
2023-04-18T03:02:17.877Z,13.07
2023-04-18T03:05:27.730Z,7.88
2023-04-18T03:08:34.700Z,9.23
2023-04-18T03:11:41.054Z,5.65
2023-04-18T03:14:46.888Z,12.07
2023-04-18T03:17:56.494Z,8.13
2023-04-18T03:21:06.030Z,5.95
2023-04-18T03:24:12.340Z,6.50
2023-04-18T03:27:23.979Z,10.63
2023-04-18T03:30:46.453Z,5.10
2023-04-18T03:48:08.489Z,4.55
2023-04-18T03:51:35.342Z,3.83
2023-04-18T03:54:39.935Z,5.63
2023-04-18T03:57:43.634Z,4.25
2023-04-18T04:00:55.454Z,4.70
2023-04-18T04:07:45.939Z,7.75
2023-04-18T04:11:03.292Z,6.93
2023-04-18T04:14:31.703Z,9.57
2023-04-18T04:17:54.318Z,8.40
2023-04-18T04:21:01.737Z,13.43
2023-04-18T04:24:18.605Z,19.27
2023-04-18T04:31:25.499Z,5.43
2023-04-18T04:34:42.202Z,7.05
2023-04-18T04:37:48.239Z,15.55
2023-04-18T04:41:01.138Z,5.07
2023-04-18T04:44:06.371Z,15.00
2023-04-18T04:47:17.202Z,13.27
2023-04-18T04:50:20.971Z,11.93
2023-04-18T04:53:25.560Z,6.00
2023-04-18T04:56:29.711Z,12.07
2023-04-18T04:59:36.357Z,11.43
2023-04-18T05:02:39.854Z,17.13
2023-04-18T05:05:43.549Z,17.35
2023-04-18T05:08:50.567Z,21.92
2023-04-18T05:11:55.087Z,17.20
2023-04-18T05:14:58.914Z,23.35
2023-04-18T05:18:02.753Z,6.93
2023-04-18T05:21:10.373Z,13.23
2023-04-18T05:24:20.760Z,14.82
2023-04-18T05:27:48.772Z,4.97
2023-04-18T05:31:04.178Z,5.88
2023-04-18T05:34:07.647Z,6.53
2023-04-18T05:37:27.384Z,11.65
2023-04-18T05:40:36.871Z,11.52
2023-04-18T05:43:54.264Z,17.80
2023-04-18T05:50:44.374Z,10.98
2023-04-18T05:53:50.780Z,6.38
2023-04-18T05:56:58.474Z,15.23
2023-04-18T06:00:13.033Z,9.85
2023-04-18T06:03:43.823Z,10.77
2023-04-18T06:06:47.618Z,19.70
2023-04-18T06:09:54.760Z,12.52
2023-04-18T06:13:16.091Z,12.85
2023-04-18T06:16:19.587Z,13.23
2023-04-18T06:19:41.011Z,9.75
2023-04-18T06:23:10.455Z,8.57
2023-04-18T06:26:14.636Z,7.40
2023-04-18T06:29:43.977Z,18.10
2023-04-18T06:32:48.474Z,8.30
2023-04-18T06:35:55.501Z,9.80
2023-04-18T06:39:03.034Z,10.18
2023-04-18T06:42:31.228Z,14.63
2023-04-18T06:45:42.812Z,14.27
2023-04-18T06:49:12.230Z,11.93
2023-04-18T06:52:17.080Z,15.68
2023-04-18T06:55:46.916Z,2.97
2023-04-18T06:59:13.534Z,6.97
2023-04-18T07:02:44.239Z,8.23
2023-04-18T07:05:47.857Z,7.72
2023-04-18T07:08:53.968Z,7.97
2023-04-18T07:15:37.135Z,10.60
2023-04-18T07:25:50.916Z,17.30
2023-04-18T07:29:04.231Z,9.85
2023-04-18T07:32:33.510Z,6.43
2023-04-18T07:35:41.256Z,3.60
2023-04-18T07:39:18.326Z,6.07
2023-04-18T07:42:24.484Z,5.05
2023-04-18T07:45:37.124Z,6.40
2023-04-18T07:48:52.888Z,8.57
2023-04-18T07:55:35.436Z,5.88
2023-04-18T07:58:43.416Z,5.13
2023-04-18T08:01:53.445Z,6.35
2023-04-18T08:05:22.438Z,6.85
2023-04-18T08:09:28.613Z,14.20
2023-04-18T08:12:47.268Z,3.83
2023-04-18T08:19:15.886Z,3.08
2023-04-18T08:23:05.246Z,10.48
2023-04-18T08:26:15.291Z,8.15
2023-04-18T08:29:23.870Z,9.90
2023-04-18T08:32:30.385Z,5.47
2023-04-18T08:35:45.917Z,11.63
2023-04-18T08:39:09.034Z,9.25
2023-04-18T08:42:23.695Z,6.68
2023-04-18T08:45:29.652Z,8.40
2023-04-18T08:49:03.169Z,18.08
2023-04-18T08:56:18.357Z,5.35
2023-04-18T09:03:08.241Z,10.90
2023-04-18T09:06:39.762Z,6.25
2023-04-18T09:09:52.393Z,4.15
2023-04-18T09:13:00.382Z,5.05
2023-04-18T09:16:15.653Z,9.15
2023-04-18T09:19:24.650Z,13.77
2023-04-18T09:22:49.018Z,6.70
2023-04-18T09:26:37.329Z,11.10
2023-04-18T09:29:51.303Z,22.30
2023-04-18T09:33:03.548Z,5.32
2023-04-18T09:36:19.539Z,5.97
2023-04-18T09:39:53.731Z,32.50
2023-04-18T09:42:58.751Z,8.90
2023-04-18T09:46:23.778Z,9.27
2023-04-18T09:49:28.924Z,10.88
2023-04-18T09:57:51.768Z,19.92
2023-04-18T10:01:31.212Z,10.25
2023-04-18T10:04:38.340Z,10.30
2023-04-18T10:08:07.162Z,9.73
2023-04-18T10:11:37.437Z,13.50
2023-04-18T10:14:46.133Z,9.32
2023-04-18T10:21:05.324Z,5.03
2023-04-18T10:24:29.196Z,11.82
2023-04-18T10:27:51.537Z,10.32
2023-04-18T10:31:05.993Z,8.32
2023-04-18T10:34:09.625Z,10.65
2023-04-18T10:37:22.374Z,12.70
2023-04-18T10:40:43.025Z,15.82
2023-04-18T10:44:08.973Z,19.33
2023-04-18T10:47:22.939Z,13.82
2023-04-18T10:50:27.099Z,11.65
2023-04-18T10:53:31.597Z,14.82
2023-04-18T10:56:35.275Z,16.00
2023-04-18T10:59:59.082Z,27.80
2023-04-18T11:03:03.143Z,12.05
2023-04-18T11:06:08.329Z,20.13
2023-04-18T11:09:16.819Z,18.60
2023-04-18T11:12:23.451Z,24.85
2023-04-18T11:15:29.757Z,10.35
2023-04-18T11:18:43.420Z,6.57
2023-04-18T11:21:47.020Z,6.75
2023-04-18T11:24:50.518Z,9.70
2023-04-18T11:27:55.737Z,13.25
2023-04-18T11:31:00.916Z,12.93
2023-04-18T11:34:54.970Z,8.50
2023-04-18T11:37:59.200Z,5.70
2023-04-18T11:41:05.946Z,7.57
2023-04-18T11:44:09.345Z,7.25
2023-04-18T11:47:32.492Z,5.03
2023-04-18T11:50:38.362Z,5.63
2023-04-18T11:53:42.016Z,12.50
2023-04-18T11:56:49.756Z,12.60
2023-04-18T12:00:01.635Z,8.98
2023-04-18T12:03:19.527Z,12.07
2023-04-18T12:06:23.397Z,12.30
2023-04-18T12:09:30.765Z,9.07
2023-04-18T12:12:37.884Z,9.68
2023-04-18T12:15:45.195Z,7.97
2023-04-18T12:18:48.608Z,8.85
2023-04-18T12:28:55.637Z,21.80
2023-04-18T12:32:31.083Z,16.25
2023-04-18T12:36:19.043Z,26.50
2023-04-18T12:39:26.843Z,18.48
2023-04-18T12:42:30.437Z,33.03
2023-04-18T12:45:33.990Z,37.20
2023-04-18T12:48:37.525Z,40.92
2023-04-18T12:52:06.046Z,44.03
2023-04-18T12:55:16.392Z,51.97
2023-04-18T12:58:21.572Z,70.60
2023-04-18T13:01:36.134Z,80.28
2023-04-18T13:04:42.374Z,62.00
2023-04-18T13:07:50.433Z,60.72
2023-04-18T13:10:58.450Z,55.05
2023-04-18T13:14:07.955Z,60.20
2023-04-18T13:17:15.481Z,65.72
2023-04-18T13:20:22.009Z,64.50
2023-04-18T13:23:27.440Z,61.88
2023-04-18T13:27:03.097Z,61.22
2023-04-18T13:30:07.336Z,60.88
2023-04-18T13:33:11.399Z,69.95
2023-04-18T13:36:18.752Z,65.38
2023-04-18T13:39:25.432Z,71.82
2023-04-18T13:42:32.127Z,58.90
2023-04-18T13:45:35.591Z,50.33
2023-04-18T13:49:04.100Z,55.30
2023-04-18T13:52:07.640Z,49.78
2023-04-18T13:55:13.138Z,38.25
2023-04-18T13:58:18.876Z,48.72
2023-04-18T14:01:22.991Z,39.78
2023-04-18T14:04:32.595Z,45.05
2023-04-18T14:07:37.993Z,64.32
2023-04-18T14:10:41.500Z,78.95
2023-04-18T14:13:44.771Z,89.93
2023-04-18T14:16:58.593Z,93.43
2023-04-18T14:20:27.290Z,70.85
2023-04-18T14:23:31.572Z,78.50
2023-04-18T14:26:34.880Z,76.78
2023-04-18T14:30:03.238Z,86.93
2023-04-18T14:33:07.902Z,83.57
2023-04-18T14:36:11.469Z,84.05
2023-04-18T14:39:15.106Z,77.78
2023-04-18T14:42:21.695Z,86.07
2023-04-18T14:45:25.067Z,89.50
2023-04-18T14:48:31.410Z,88.97
2023-04-18T14:51:34.810Z,92.53
2023-04-18T14:54:59.719Z,99.10
2023-04-18T14:58:28.235Z,89.60
2023-04-18T15:01:34.490Z,93.95
2023-04-18T15:04:38.331Z,108.75
2023-04-18T15:07:54.212Z,103.65
2023-04-18T15:10:57.687Z,97.63
2023-04-18T15:14:07.841Z,109.40
2023-04-18T15:17:14.919Z,103.53
2023-04-18T15:20:23.667Z,108.15
2023-04-18T15:23:55.574Z,128.20
2023-04-18T15:27:01.050Z,113.80
2023-04-18T15:30:05.124Z,115.97
2023-04-18T15:33:14.541Z,110.80
2023-04-18T15:36:23.924Z,105.63
2023-04-18T15:39:27.430Z,111.20
2023-04-18T15:42:39.647Z,111.40
2023-04-18T15:45:45.063Z,114.75
2023-04-18T15:49:37.898Z,120.07
2023-04-18T15:52:47.418Z,116.75
2023-04-18T15:55:54.989Z,110.70
2023-04-18T15:59:01.002Z,119.68
2023-04-18T16:02:10.207Z,99.25
2023-04-18T16:05:15.809Z,82.47
2023-04-18T16:08:19.123Z,48.13
2023-04-18T16:11:47.583Z,54.63
2023-04-18T16:14:51.044Z,37.33
2023-04-18T16:17:55.139Z,26.88
2023-04-18T16:21:05.933Z,117.32
2023-04-18T16:24:17.082Z,149.80
2023-04-18T16:27:20.336Z,138.27
2023-04-18T16:30:29.385Z,138.02
2023-04-18T16:33:35.799Z,135.80
2023-04-18T16:37:04.546Z,128.15
2023-04-18T16:40:10.534Z,127.30
2023-04-18T16:43:15.928Z,122.60
2023-04-18T16:46:19.788Z,132.13
2023-04-18T16:49:24.338Z,131.38
2023-04-18T16:52:27.636Z,115.63
2023-04-18T16:55:31.050Z,110.00
2023-04-18T16:58:34.387Z,94.28
2023-04-18T17:01:37.642Z,99.97
2023-04-18T17:04:41.688Z,88.68
2023-04-18T17:07:46.662Z,83.82
2023-04-18T17:10:55.770Z,63.50
2023-04-18T17:13:58.960Z,68.32
2023-04-18T17:17:05.187Z,55.65
2023-04-18T17:20:09.120Z,51.17
2023-04-18T17:23:12.565Z,46.75
2023-04-18T17:26:16.020Z,45.20
2023-04-18T17:29:19.637Z,44.50
2023-04-18T17:32:26.046Z,35.67
2023-04-18T17:35:29.437Z,34.63
2023-04-18T17:38:33.120Z,28.02
2023-04-18T17:41:40.915Z,21.30
2023-04-18T17:44:44.209Z,81.80
2023-04-18T17:47:47.519Z,78.50
2023-04-18T17:50:50.895Z,64.38
2023-04-18T17:53:54.601Z,61.95
2023-04-18T17:56:58.557Z,68.47
2023-04-18T18:00:02.387Z,89.35
2023-04-18T18:03:16.402Z,96.10
2023-04-18T18:06:20.096Z,97.00
2023-04-18T18:09:23.383Z,90.88
2023-04-18T18:12:26.889Z,80.85
2023-04-18T18:15:30.556Z,89.13
2023-04-18T18:18:33.991Z,83.63
2023-04-18T18:21:37.293Z,90.70
2023-04-18T18:24:40.583Z,80.40
2023-04-18T18:27:43.880Z,81.85
2023-04-18T18:30:47.162Z,78.47
2023-04-18T18:33:50.409Z,77.90
2023-04-18T18:36:54.220Z,78.45
2023-04-18T18:39:57.581Z,70.90
2023-04-18T18:43:01.609Z,80.75
2023-04-18T18:46:04.885Z,88.82
2023-04-18T18:49:08.762Z,88.25
2023-04-18T18:52:12.107Z,86.55
2023-04-18T18:55:16.456Z,91.88
2023-04-18T18:58:19.795Z,80.25
2023-04-18T19:04:40.371Z,72.47
2023-04-18T19:07:43.750Z,70.28
2023-04-18T19:10:47.151Z,74.32
2023-04-18T19:13:52.827Z,75.55
2023-04-18T19:16:56.717Z,56.60
2023-04-18T19:20:02.007Z,37.50
2023-04-18T19:23:05.344Z,38.50
2023-04-18T19:26:09.022Z,31.67
2023-04-18T19:29:15.010Z,34.17
2023-04-18T19:32:18.499Z,40.58
2023-04-18T19:35:21.925Z,37.60
2023-04-18T19:38:25.258Z,39.78
2023-04-18T19:41:28.558Z,34.75
2023-04-18T19:44:33.098Z,38.25
2023-04-18T19:47:37.232Z,41.33
2023-04-18T19:50:41.319Z,52.20
2023-04-18T19:53:44.616Z,35.88
2023-04-18T19:56:47.928Z,36.05
2023-04-18T19:59:51.500Z,42.33
2023-04-18T20:02:55.415Z,38.58
2023-04-18T20:05:59.166Z,38.95
2023-04-18T20:09:02.449Z,42.75
2023-04-18T20:12:05.917Z,37.63
2023-04-18T20:15:09.754Z,39.72
2023-04-18T20:18:13.165Z,49.45
2023-04-18T20:21:16.778Z,44.35
2023-04-18T20:24:21.813Z,43.15
2023-04-18T20:27:25.246Z,43.13
2023-04-18T20:30:28.763Z,45.67
2023-04-18T20:33:32.071Z,43.70
2023-04-18T20:36:36.214Z,41.05
2023-04-18T20:39:40.583Z,53.10
2023-04-18T20:42:43.935Z,46.65
2023-04-18T20:45:52.120Z,46.92
2023-04-18T20:48:55.408Z,49.40
2023-04-18T20:51:58.714Z,52.38
2023-04-18T20:55:02.067Z,45.50
2023-04-18T20:58:05.365Z,50.33
2023-04-18T21:01:08.774Z,53.28
2023-04-18T21:04:12.288Z,53.50
2023-04-18T21:07:15.824Z,46.47
2023-04-18T21:10:19.327Z,48.25
2023-04-18T21:13:22.624Z,46.25
2023-04-18T21:16:26.548Z,47.17
2023-04-18T21:19:29.888Z,53.03
2023-04-18T21:22:33.142Z,49.65
2023-04-18T21:25:36.431Z,51.42
2023-04-18T21:28:59.808Z,51.13
2023-04-18T21:32:03.717Z,54.45
2023-04-18T21:35:07.598Z,35.67
2023-04-18T21:38:10.857Z,37.45
2023-04-18T21:41:17.609Z,28.65
2023-04-18T21:44:21.001Z,28.02
2023-04-18T21:47:24.386Z,38.83
2023-04-18T21:50:27.680Z,28.17
2023-04-18T21:53:31.095Z,25.10
2023-04-18T21:56:34.392Z,23.90
2023-04-18T21:59:37.732Z,21.67
2023-04-18T22:02:41.226Z,27.75
2023-04-18T22:05:44.642Z,22.30
2023-04-18T22:08:48.906Z,16.58
2023-04-18T22:11:52.435Z,23.25
2023-04-18T22:14:57.384Z,25.02
2023-04-18T22:18:01.823Z,27.10
2023-04-18T22:21:05.251Z,24.70
2023-04-18T22:24:09.297Z,33.05
2023-04-18T22:27:12.679Z,29.20
2023-04-18T22:30:16.218Z,38.83
2023-04-18T22:33:19.587Z,35.67
2023-04-18T22:36:22.921Z,26.63
2023-04-18T22:39:26.779Z,24.90
2023-04-18T22:42:30.220Z,23.25
2023-04-18T22:45:35.377Z,23.52
2023-04-18T22:48:39.115Z,26.83
2023-04-18T22:51:42.957Z,24.25
2023-04-18T22:54:46.401Z,17.80
2023-04-18T22:57:49.662Z,21.48
2023-04-18T23:00:52.918Z,21.50
2023-04-18T23:03:56.729Z,29.15
2023-04-18T23:07:00.193Z,23.20
2023-04-18T23:10:07.039Z,23.95
2023-04-18T23:13:10.358Z,17.98
2023-04-18T23:16:13.766Z,25.42
2023-04-18T23:19:17.132Z,20.23
2023-04-18T23:22:21.103Z,22.00
2023-04-18T23:25:24.513Z,15.73
2023-04-18T23:28:27.846Z,17.23
2023-04-18T23:31:33.552Z,8.52
2023-04-18T23:34:36.926Z,27.33
2023-04-18T23:37:40.241Z,26.73
2023-04-18T23:40:43.600Z,27.73
2023-04-18T23:43:46.927Z,22.35
2023-04-18T23:46:50.421Z,26.13
2023-04-18T23:49:53.684Z,23.02
2023-04-18T23:52:57.103Z,28.48
2023-04-18T23:56:00.483Z,25.55
2023-04-18T23:59:03.805Z,24.00
